createdAt,value
2018-04-29T00:01:07.359Z,0
2018-04-29T00:02:16.195Z,0
2018-04-29T00:03:25.030Z,0
2018-04-29T00:04:33.859Z,0
2018-04-29T00:05:42.693Z,0
2018-04-29T00:06:51.525Z,0
2018-04-29T00:08:00.361Z,0
2018-04-29T00:09:09.193Z,0
2018-04-29T00:10:18.025Z,0
2018-04-29T00:11:27.136Z,0
2018-04-29T00:12:35.970Z,0
2018-04-29T00:13:45.083Z,0
2018-04-29T00:14:53.917Z,0
2018-04-29T00:16:02.755Z,0
2018-04-29T00:17:11.861Z,0
2018-04-29T00:18:20.742Z,0
2018-04-29T00:19:29.577Z,0
2018-04-29T00:20:38.412Z,0
2018-04-29T00:21:47.517Z,0
2018-04-29T00:22:56.357Z,0
2018-04-29T00:24:05.743Z,0
2018-04-29T00:25:14.579Z,0
2018-04-29T00:26:23.408Z,0
2018-04-29T00:27:32.244Z,0
2018-04-29T00:28:41.077Z,0
2018-04-29T00:29:50.061Z,0
2018-04-29T00:30:58.900Z,0
2018-04-29T00:32:07.730Z,0
2018-04-29T00:33:16.566Z,0
2018-04-29T00:34:25.401Z,0
2018-04-29T00:35:34.697Z,0
2018-04-29T00:36:43.530Z,0
2018-04-29T00:37:52.363Z,0
2018-04-29T00:39:01.199Z,0
2018-04-29T00:40:10.033Z,0
2018-04-29T00:41:18.868Z,0
2018-04-29T00:42:27.708Z,0
2018-04-29T00:43:36.545Z,0
2018-04-29T00:44:45.376Z,0
2018-04-29T00:45:54.207Z,0
2018-04-29T00:47:03.191Z,0
2018-04-29T00:48:12.027Z,0
2018-04-29T00:49:21.132Z,0
2018-04-29T00:50:29.963Z,0
2018-04-29T00:51:38.796Z,0
2018-04-29T00:52:48.060Z,0
2018-04-29T00:53:57.166Z,0
2018-04-29T00:55:06.278Z,0
2018-04-29T00:56:15.106Z,0
2018-04-29T00:57:24.225Z,0
2018-04-29T00:58:33.609Z,0
2018-04-29T00:59:42.444Z,0
2018-04-29T01:00:51.278Z,0
2018-04-29T01:02:00.113Z,0
2018-04-29T01:03:08.947Z,0
2018-04-29T01:04:18.106Z,0
2018-04-29T01:05:26.942Z,0
2018-04-29T01:06:35.773Z,0
2018-04-29T01:07:44.606Z,0
2018-04-29T01:08:53.438Z,0
2018-04-29T01:10:02.273Z,0
2018-04-29T01:11:11.392Z,0
2018-04-29T01:12:20.228Z,0
2018-04-29T01:13:29.064Z,0
2018-04-29T01:14:37.897Z,0
2018-04-29T01:15:46.834Z,0
2018-04-29T01:16:55.665Z,0
2018-04-29T01:18:04.498Z,0
2018-04-29T01:19:13.603Z,0
2018-04-29T01:20:22.712Z,0
2018-04-29T01:21:31.797Z,0
2018-04-29T01:22:40.638Z,0
2018-04-29T01:23:49.468Z,0
2018-04-29T01:24:58.298Z,0
2018-04-29T01:26:07.417Z,0
2018-04-29T01:27:16.669Z,0
2018-04-29T01:28:25.501Z,0
2018-04-29T01:29:34.336Z,0
2018-04-29T01:30:43.173Z,0
2018-04-29T01:31:52.002Z,0
2018-04-29T01:33:00.985Z,0
2018-04-29T01:34:09.817Z,0
2018-04-29T01:35:18.933Z,0
2018-04-29T01:36:27.765Z,0
2018-04-29T01:37:36.601Z,0
2018-04-29T01:38:45.478Z,0
2018-04-29T01:39:54.309Z,0
2018-04-29T01:41:03.419Z,0
2018-04-29T01:42:12.255Z,0
2018-04-29T01:43:21.090Z,0
2018-04-29T01:44:30.299Z,0
2018-04-29T01:45:39.133Z,0
2018-04-29T01:46:47.968Z,0
2018-04-29T01:47:57.349Z,0
2018-04-29T01:49:06.182Z,0
2018-04-29T01:50:15.594Z,0
2018-04-29T01:51:24.429Z,0
2018-04-29T01:52:33.533Z,0
2018-04-29T01:53:42.368Z,0
2018-04-29T01:54:51.203Z,0
2018-04-29T01:56:00.136Z,0
2018-04-29T01:57:09.243Z,0
2018-04-29T01:58:18.075Z,0
2018-04-29T01:59:26.907Z,0
2018-04-29T02:00:36.011Z,0
2018-04-29T02:01:45.275Z,0
2018-04-29T02:02:54.111Z,0
2018-04-29T02:04:03.221Z,0
2018-04-29T02:05:12.053Z,0
2018-04-29T02:06:20.887Z,0
2018-04-29T02:07:29.821Z,0
2018-04-29T02:08:38.930Z,0
2018-04-29T02:09:47.763Z,0
2018-04-29T02:10:56.873Z,0
2018-04-29T02:12:05.985Z,0
2018-04-29T02:13:14.926Z,0
2018-04-29T02:14:23.752Z,0
2018-04-29T02:15:32.579Z,0
2018-04-29T02:16:41.419Z,0
2018-04-29T02:17:50.248Z,0
2018-04-29T02:18:59.081Z,0
2018-04-29T02:20:08.190Z,0
2018-04-29T02:21:17.294Z,0
2018-04-29T02:22:26.126Z,0
2018-04-29T02:23:34.961Z,0
2018-04-29T02:24:44.371Z,0
2018-04-29T02:25:53.204Z,0
2018-04-29T02:27:02.037Z,0
2018-04-29T02:28:10.868Z,0
2018-04-29T02:29:19.980Z,0
2018-04-29T02:30:28.964Z,0
2018-04-29T02:31:37.797Z,0
2018-04-29T02:32:46.633Z,0
2018-04-29T02:33:55.468Z,0
2018-04-29T02:35:04.858Z,0
2018-04-29T02:36:14.078Z,0
2018-04-29T02:37:22.915Z,0
2018-04-29T02:38:32.130Z,0
2018-04-29T02:39:41.527Z,0
2018-04-29T02:40:50.642Z,0
2018-04-29T02:41:59.877Z,0
2018-04-29T02:43:09.005Z,0
2018-04-29T02:44:18.390Z,0
2018-04-29T02:45:27.230Z,0
2018-04-29T02:46:36.334Z,0
2018-04-29T02:47:45.172Z,0
2018-04-29T02:48:54.555Z,0
2018-04-29T02:50:03.666Z,0
2018-04-29T02:51:12.503Z,0
2018-04-29T02:52:21.333Z,0
2018-04-29T02:53:30.557Z,0
2018-04-29T02:54:39.391Z,0
2018-04-29T02:55:48.501Z,0
2018-04-29T02:56:57.619Z,0
2018-04-29T02:58:06.455Z,0
2018-04-29T02:59:16.135Z,0
2018-04-29T03:00:25.246Z,0
2018-04-29T03:01:34.355Z,0
2018-04-29T03:02:43.756Z,0
2018-04-29T03:03:52.871Z,0
2018-04-29T03:05:01.978Z,0
2018-04-29T03:06:10.812Z,0
2018-04-29T03:07:19.916Z,0
2018-04-29T03:08:28.753Z,0
2018-04-29T03:09:37.590Z,0
2018-04-29T03:10:47.177Z,0
2018-04-29T03:11:56.010Z,0
2018-04-29T03:13:05.117Z,0
2018-04-29T03:14:13.949Z,0
2018-04-29T03:15:23.070Z,0
2018-04-29T03:16:32.179Z,0
2018-04-29T03:17:41.285Z,0
2018-04-29T03:18:50.394Z,0
2018-04-29T03:19:59.224Z,0
2018-04-29T03:21:08.055Z,0
2018-04-29T03:22:17.037Z,0
2018-04-29T03:23:25.869Z,0
2018-04-29T03:24:34.704Z,0
2018-04-29T03:25:43.536Z,0
2018-04-29T03:26:52.375Z,0
2018-04-29T03:28:01.207Z,0
2018-04-29T03:29:10.040Z,0
2018-04-29T03:30:19.424Z,0
2018-04-29T03:31:28.814Z,0
2018-04-29T03:32:38.077Z,0
2018-04-29T03:33:47.057Z,0
2018-04-29T03:34:55.891Z,0
2018-04-29T03:36:04.721Z,0
2018-04-29T03:37:13.554Z,0
2018-04-29T03:38:22.668Z,0
2018-04-29T03:39:31.646Z,0
2018-04-29T03:40:40.478Z,0
2018-04-29T03:41:49.608Z,0
2018-04-29T03:42:58.713Z,0
2018-04-29T03:44:07.543Z,0
2018-04-29T03:45:16.629Z,0
2018-04-29T03:46:25.742Z,0
2018-04-29T03:47:34.577Z,0
2018-04-29T03:48:43.686Z,0
2018-04-29T03:49:52.516Z,0
2018-04-29T03:51:01.346Z,0
2018-04-29T03:52:10.178Z,0
2018-04-29T03:53:19.016Z,0
2018-04-29T03:54:28.125Z,0
2018-04-29T03:55:37.237Z,0
2018-04-29T03:56:46.172Z,5
2018-04-29T03:57:55.005Z,5
2018-04-29T03:59:03.840Z,5
2018-04-29T04:00:12.673Z,5
2018-04-29T04:01:21.506Z,5
2018-04-29T04:02:30.399Z,5
2018-04-29T04:03:39.511Z,5
2018-04-29T04:04:48.617Z,5
2018-04-29T04:05:57.452Z,10
2018-04-29T04:07:06.296Z,10
2018-04-29T04:08:15.451Z,10
2018-04-29T04:09:24.283Z,10
2018-04-29T04:10:33.117Z,15
2018-04-29T04:11:41.950Z,15
2018-04-29T04:12:50.791Z,15
2018-04-29T04:14:00.050Z,15
2018-04-29T04:15:08.881Z,20
2018-04-29T04:16:17.717Z,20
2018-04-29T04:17:26.832Z,20
2018-04-29T04:18:35.663Z,20
2018-04-29T04:19:44.746Z,25
2018-04-29T04:20:53.865Z,25
2018-04-29T04:22:02.976Z,30
2018-04-29T04:23:11.812Z,30
2018-04-29T04:24:20.921Z,30
2018-04-29T04:25:30.053Z,30
2018-04-29T04:26:38.887Z,35
2018-04-29T04:27:47.724Z,35
2018-04-29T04:28:56.652Z,35
2018-04-29T04:30:05.760Z,40
2018-04-29T04:31:14.593Z,40
2018-04-29T04:32:23.432Z,45
2018-04-29T04:33:32.264Z,45
2018-04-29T04:34:41.367Z,45
2018-04-29T04:35:50.477Z,50
2018-04-29T04:36:59.610Z,50
2018-04-29T04:38:08.443Z,55
2018-04-29T04:39:17.279Z,55
2018-04-29T04:40:26.110Z,60
2018-04-29T04:41:35.226Z,65
2018-04-29T04:42:44.586Z,65
2018-04-29T04:43:53.421Z,65
2018-04-29T04:45:02.257Z,65
2018-04-29T04:46:11.367Z,65
2018-04-29T04:47:20.199Z,70
2018-04-29T04:48:29.034Z,70
2018-04-29T04:49:37.867Z,75
2018-04-29T04:50:47.129Z,75
2018-04-29T04:51:55.963Z,80
2018-04-29T04:53:04.795Z,80
2018-04-29T04:54:13.908Z,80
2018-04-29T04:55:23.019Z,80
2018-04-29T04:56:32.177Z,85
2018-04-29T04:57:41.283Z,90
2018-04-29T04:58:50.115Z,90
2018-04-29T04:59:59.001Z,95
2018-04-29T05:01:07.835Z,100
2018-04-29T05:02:16.666Z,100
2018-04-29T05:03:25.773Z,100
2018-04-29T05:04:34.606Z,105
2018-04-29T05:05:43.743Z,100
2018-04-29T05:06:52.578Z,100
2018-04-29T05:08:01.423Z,100
2018-04-29T05:09:10.257Z,100
2018-04-29T05:10:19.362Z,110
2018-04-29T05:11:28.347Z,115
2018-04-29T05:12:37.178Z,120
2018-04-29T05:13:46.781Z,125
2018-04-29T05:14:55.527Z,130
2018-04-29T05:16:04.636Z,130
2018-04-29T05:17:13.475Z,130
2018-04-29T05:18:22.583Z,130
2018-04-29T05:19:31.694Z,130
2018-04-29T05:20:40.533Z,130
2018-04-29T05:21:49.636Z,145
2018-04-29T05:22:58.804Z,165
2018-04-29T05:24:07.628Z,170
2018-04-29T05:25:16.477Z,170
2018-04-29T05:26:25.294Z,165
2018-04-29T05:27:34.126Z,155
2018-04-29T05:28:43.064Z,150
2018-04-29T05:29:51.903Z,145
2018-04-29T05:31:01.015Z,145
2018-04-29T05:32:10.129Z,150
2018-04-29T05:33:18.964Z,150
2018-04-29T05:34:27.895Z,145
2018-04-29T05:35:36.731Z,145
2018-04-29T05:36:45.841Z,145
2018-04-29T05:37:54.675Z,145
2018-04-29T05:39:03.509Z,145
2018-04-29T05:40:12.915Z,145
2018-04-29T05:41:21.748Z,145
2018-04-29T05:42:30.860Z,150
2018-04-29T05:43:39.696Z,150
2018-04-29T05:44:48.536Z,150
2018-04-29T05:45:57.668Z,165
2018-04-29T05:47:06.504Z,170
2018-04-29T05:48:15.611Z,175
2018-04-29T05:49:24.448Z,175
2018-04-29T05:50:33.561Z,175
2018-04-29T05:51:42.645Z,170
2018-04-29T05:52:51.753Z,170
2018-04-29T05:54:00.590Z,170
2018-04-29T05:55:09.703Z,170
2018-04-29T05:56:18.537Z,165
2018-04-29T05:57:27.475Z,165
2018-04-29T05:58:36.307Z,155
2018-04-29T05:59:45.142Z,150
2018-04-29T06:00:53.976Z,150
2018-04-29T06:02:02.810Z,155
2018-04-29T06:03:11.894Z,155
2018-04-29T06:04:20.730Z,160
2018-04-29T06:05:29.562Z,160
2018-04-29T06:06:38.429Z,165
2018-04-29T06:07:47.627Z,165
2018-04-29T06:08:56.458Z,165
2018-04-29T06:10:05.291Z,165
2018-04-29T06:11:14.677Z,160
2018-04-29T06:12:23.522Z,160
2018-04-29T06:13:32.356Z,165
2018-04-29T06:14:41.620Z,175
2018-04-29T06:15:50.450Z,180
2018-04-29T06:16:59.561Z,190
2018-04-29T06:18:08.396Z,195
2018-04-29T06:19:17.502Z,205
2018-04-29T06:20:26.805Z,210
2018-04-29T06:21:35.847Z,205
2018-04-29T06:22:44.679Z,205
2018-04-29T06:23:53.517Z,200
2018-04-29T06:25:02.347Z,200
2018-04-29T06:26:11.828Z,195
2018-04-29T06:27:20.832Z,180
2018-04-29T06:28:29.665Z,170
2018-04-29T06:29:38.499Z,170
2018-04-29T06:30:47.330Z,170
2018-04-29T06:31:56.652Z,165
2018-04-29T06:33:05.434Z,170
2018-04-29T06:34:14.271Z,170
2018-04-29T06:35:23.112Z,170
2018-04-29T06:36:32.231Z,175
2018-04-29T06:37:41.115Z,175
2018-04-29T06:38:50.342Z,180
2018-04-29T06:39:59.459Z,180
2018-04-29T06:41:08.293Z,180
2018-04-29T06:42:17.128Z,180
2018-04-29T06:43:26.393Z,185
2018-04-29T06:44:35.223Z,185
2018-04-29T06:45:44.340Z,180
2018-04-29T06:46:53.591Z,185
2018-04-29T06:48:02.628Z,190
2018-04-29T06:49:11.464Z,195
2018-04-29T06:50:20.298Z,195
2018-04-29T06:51:29.137Z,200
2018-04-29T06:52:38.248Z,210
2018-04-29T06:53:47.085Z,235
2018-04-29T06:54:56.249Z,250
2018-04-29T06:56:05.095Z,255
2018-04-29T06:57:13.929Z,265
2018-04-29T06:58:22.763Z,265
2018-04-29T06:59:31.595Z,280
2018-04-29T07:00:40.539Z,295
2018-04-29T07:01:49.649Z,305
2018-04-29T07:02:58.487Z,300
2018-04-29T07:04:07.594Z,295
2018-04-29T07:05:16.428Z,290
2018-04-29T07:06:25.262Z,285
2018-04-29T07:07:34.098Z,275
2018-04-29T07:08:42.932Z,270
2018-04-29T07:09:51.771Z,275
2018-04-29T07:11:00.886Z,275
2018-04-29T07:12:09.876Z,275
2018-04-29T07:13:18.713Z,280
2018-04-29T07:14:27.553Z,280
2018-04-29T07:15:36.389Z,275
2018-04-29T07:16:45.769Z,265
2018-04-29T07:17:54.755Z,265
2018-04-29T07:19:03.867Z,270
2018-04-29T07:20:12.705Z,270
2018-04-29T07:21:21.540Z,265
2018-04-29T07:22:30.376Z,270
2018-04-29T07:23:39.211Z,270
2018-04-29T07:24:48.045Z,270
2018-04-29T07:25:56.881Z,260
2018-04-29T07:27:06.004Z,255
2018-04-29T07:28:14.837Z,250
2018-04-29T07:29:23.770Z,240
2018-04-29T07:30:32.604Z,230
2018-04-29T07:31:41.447Z,225
2018-04-29T07:32:50.282Z,220
2018-04-29T07:33:59.420Z,215
2018-04-29T07:35:08.651Z,215
2018-04-29T07:36:18.033Z,210
2018-04-29T07:37:26.864Z,210
2018-04-29T07:38:36.044Z,205
2018-04-29T07:39:44.971Z,200
2018-04-29T07:40:53.865Z,200
2018-04-29T07:42:02.700Z,195
2018-04-29T07:43:11.535Z,195
2018-04-29T07:44:20.375Z,195
2018-04-29T07:45:29.210Z,195
2018-04-29T07:46:38.461Z,195
2018-04-29T07:47:47.297Z,200
2018-04-29T07:48:56.404Z,200
2018-04-29T07:50:05.239Z,200
2018-04-29T07:51:14.369Z,200
2018-04-29T07:52:23.650Z,200
2018-04-29T07:53:32.732Z,200
2018-04-29T07:54:41.572Z,200
2018-04-29T07:55:50.408Z,200
2018-04-29T07:56:59.797Z,200
2018-04-29T07:58:09.007Z,200
2018-04-29T07:59:17.842Z,200
2018-04-29T08:00:26.675Z,200
2018-04-29T08:01:35.513Z,205
2018-04-29T08:02:44.624Z,205
2018-04-29T08:03:53.732Z,205
2018-04-29T08:05:02.570Z,205
2018-04-29T08:06:11.405Z,205
2018-04-29T08:07:20.299Z,205
2018-04-29T08:08:29.072Z,210
2018-04-29T08:09:38.186Z,215
2018-04-29T08:10:47.025Z,215
2018-04-29T08:11:55.859Z,220
2018-04-29T08:13:04.695Z,220
2018-04-29T08:14:13.532Z,225
2018-04-29T08:15:22.709Z,230
2018-04-29T08:16:31.502Z,250
2018-04-29T08:17:40.333Z,270
2018-04-29T08:18:49.447Z,295
2018-04-29T08:19:58.558Z,330
2018-04-29T08:21:07.551Z,360
2018-04-29T08:22:16.380Z,395
2018-04-29T08:23:25.211Z,425
2018-04-29T08:24:34.053Z,445
2018-04-29T08:25:42.886Z,450
2018-04-29T08:26:51.828Z,460
2018-04-29T08:28:00.666Z,450
2018-04-29T08:29:09.788Z,435
2018-04-29T08:30:18.626Z,405
2018-04-29T08:31:27.468Z,380
2018-04-29T08:34:17.640Z,325
2018-04-29T08:35:26.479Z,305
2018-04-29T08:36:35.636Z,305
2018-04-29T08:37:44.621Z,295
2018-04-29T08:38:53.457Z,300
2018-04-29T08:40:02.293Z,290
2018-04-29T08:41:11.131Z,290
2018-04-29T08:42:19.968Z,285
2018-04-29T08:43:28.804Z,265
2018-04-29T08:44:37.640Z,290
2018-04-29T08:45:46.478Z,325
2018-04-29T08:46:55.316Z,350
2018-04-29T08:48:04.152Z,390
2018-04-29T08:49:13.140Z,400
2018-04-29T08:50:21.975Z,425
2018-04-29T08:51:30.815Z,435
2018-04-29T08:52:39.929Z,420
2018-04-29T08:53:48.765Z,420
2018-04-29T08:54:57.817Z,405
2018-04-29T08:56:06.626Z,365
2018-04-29T08:57:15.817Z,350
2018-04-29T08:58:24.655Z,335
2018-04-29T08:59:33.494Z,350
2018-04-29T09:00:42.528Z,390
2018-04-29T09:01:51.367Z,435
2018-04-29T09:03:00.205Z,435
2018-04-29T09:04:09.048Z,445
2018-04-29T09:05:17.879Z,445
2018-04-29T09:06:26.721Z,465
2018-04-29T09:07:35.557Z,470
2018-04-29T09:08:44.670Z,485
2018-04-29T09:09:53.783Z,515
2018-04-29T09:11:02.899Z,555
2018-04-29T09:12:12.074Z,590
2018-04-29T09:13:20.912Z,610
2018-04-29T09:14:29.760Z,595
2018-04-29T09:15:38.902Z,560
2018-04-29T09:16:48.336Z,525
2018-04-29T09:17:57.604Z,510
2018-04-29T09:19:06.442Z,530
2018-04-29T09:20:15.281Z,570
2018-04-29T09:21:24.118Z,605
2018-04-29T09:22:32.956Z,645
2018-04-29T09:23:42.069Z,695
2018-04-29T09:24:50.913Z,690
2018-04-29T09:25:59.758Z,640
2018-04-29T09:27:08.873Z,635
2018-04-29T09:28:17.709Z,630
2018-04-29T09:29:26.545Z,610
2018-04-29T09:30:35.385Z,610
2018-04-29T09:31:44.224Z,615
2018-04-29T09:32:53.062Z,625
2018-04-29T09:34:01.909Z,645
2018-04-29T09:35:10.744Z,640
2018-04-29T09:36:19.582Z,650
2018-04-29T09:37:28.426Z,660
2018-04-29T09:38:37.259Z,700
2018-04-29T09:39:46.098Z,710
2018-04-29T09:40:55.212Z,725
2018-04-29T09:42:04.323Z,735
2018-04-29T09:43:13.173Z,745
2018-04-29T09:44:22.008Z,765
2018-04-29T09:45:31.127Z,785
2018-04-29T09:46:40.342Z,775
2018-04-29T09:47:49.179Z,760
2018-04-29T09:48:58.018Z,735
2018-04-29T09:50:06.858Z,720
2018-04-29T09:51:15.698Z,715
2018-04-29T09:52:24.693Z,720
2018-04-29T09:53:33.526Z,700
2018-04-29T09:54:42.365Z,710
2018-04-29T09:55:51.212Z,740
2018-04-29T09:57:00.049Z,775
2018-04-29T09:58:09.616Z,755
2018-04-29T09:59:18.403Z,725
2018-04-29T10:00:27.516Z,680
2018-04-29T10:01:36.356Z,700
2018-04-29T10:02:45.745Z,700
2018-04-29T10:03:54.833Z,695
2018-04-29T10:05:03.950Z,690
2018-04-29T10:06:12.788Z,680
2018-04-29T10:07:21.628Z,695
2018-04-29T10:08:30.468Z,730
2018-04-29T10:09:40.165Z,760
2018-04-29T10:10:48.923Z,710
2018-04-29T10:11:57.765Z,630
2018-04-29T10:13:06.605Z,585
2018-04-29T10:14:15.446Z,575
2018-04-29T10:15:24.538Z,550
2018-04-29T10:16:33.375Z,495
2018-04-29T10:17:42.217Z,415
2018-04-29T10:18:51.093Z,360
2018-04-29T10:20:00.298Z,345
2018-04-29T10:21:09.141Z,340
2018-04-29T10:22:18.255Z,345
2018-04-29T10:23:27.094Z,340
2018-04-29T10:24:35.991Z,355
2018-04-29T10:25:44.772Z,390
2018-04-29T10:26:53.859Z,430
2018-04-29T10:28:02.700Z,460
2018-04-29T10:29:11.540Z,450
2018-04-29T10:30:20.932Z,465
2018-04-29T10:31:29.780Z,490
2018-04-29T10:32:39.016Z,495
2018-04-29T10:33:47.856Z,465
2018-04-29T10:34:56.697Z,375
2018-04-29T10:36:05.812Z,320
2018-04-29T10:37:14.651Z,300
2018-04-29T10:38:23.490Z,300
2018-04-29T10:39:32.329Z,320
2018-04-29T10:40:41.446Z,355
2018-04-29T10:41:50.294Z,375
2018-04-29T10:42:59.125Z,375
2018-04-29T10:44:08.338Z,360
2018-04-29T10:45:17.171Z,350
2018-04-29T10:46:26.012Z,335
2018-04-29T10:47:35.123Z,320
2018-04-29T10:48:43.965Z,295
2018-04-29T10:49:53.183Z,265
2018-04-29T10:51:02.024Z,215
2018-04-29T10:52:11.141Z,180
2018-04-29T10:53:19.979Z,165
2018-04-29T10:54:28.817Z,160
2018-04-29T10:55:37.806Z,195
2018-04-29T10:56:47.055Z,295
2018-04-29T10:57:56.034Z,365
2018-04-29T10:59:04.873Z,385
2018-04-29T11:00:13.985Z,370
2018-04-29T11:01:22.871Z,350
2018-04-29T11:02:31.981Z,325
2018-04-29T11:03:40.819Z,280
2018-04-29T11:04:49.657Z,250
2018-04-29T11:05:58.497Z,250
2018-04-29T11:07:07.341Z,240
2018-04-29T11:08:16.178Z,225
2018-04-29T11:09:25.012Z,215
2018-04-29T11:10:34.125Z,220
2018-04-29T11:11:43.245Z,250
2018-04-29T11:12:52.074Z,320
2018-04-29T11:14:00.913Z,400
2018-04-29T11:15:09.753Z,410
2018-04-29T11:16:18.590Z,400
2018-04-29T11:17:27.428Z,470
2018-04-29T11:18:36.690Z,615
2018-04-29T11:19:45.530Z,725
2018-04-29T11:20:54.367Z,725
2018-04-29T11:22:03.280Z,615
2018-04-29T11:23:12.046Z,505
2018-04-29T11:24:20.884Z,425
2018-04-29T11:25:29.722Z,395
2018-04-29T11:26:38.563Z,440
2018-04-29T11:27:47.402Z,515
2018-04-29T11:28:56.241Z,555
2018-04-29T11:30:05.507Z,555
2018-04-29T11:31:14.346Z,545
2018-04-29T11:32:23.185Z,535
2018-04-29T11:33:32.297Z,500
2018-04-29T11:34:41.410Z,485
2018-04-29T11:35:50.248Z,560
2018-04-29T11:36:59.372Z,650
2018-04-29T11:38:08.207Z,605
2018-04-29T11:39:17.046Z,530
2018-04-29T11:40:25.931Z,460
2018-04-29T11:41:34.872Z,450
2018-04-29T11:42:43.994Z,465
2018-04-29T11:43:53.095Z,470
2018-04-29T11:45:02.210Z,505
2018-04-29T11:46:11.049Z,580
2018-04-29T11:47:20.461Z,645
2018-04-29T11:48:29.300Z,700
2018-04-29T11:49:38.414Z,715
2018-04-29T11:50:47.255Z,750
2018-04-29T11:51:56.093Z,810
2018-04-29T11:53:04.930Z,1050
2018-04-29T11:54:13.767Z,875
2018-04-29T11:55:22.607Z,715
2018-04-29T11:56:31.448Z,570
2018-04-29T11:57:40.293Z,480
2018-04-29T11:58:49.464Z,405
2018-04-29T11:59:58.580Z,355
2018-04-29T12:01:07.421Z,355
2018-04-29T12:02:16.534Z,375
2018-04-29T12:03:25.372Z,385
2018-04-29T12:04:34.687Z,355
2018-04-29T12:05:43.526Z,290
2018-04-29T12:06:52.367Z,270
2018-04-29T12:08:01.204Z,270
2018-04-29T12:09:10.047Z,270
2018-04-29T12:10:19.259Z,275
2018-04-29T12:11:28.099Z,285
2018-04-29T12:12:36.936Z,275
2018-04-29T12:13:45.776Z,260
2018-04-29T12:14:54.613Z,255
2018-04-29T12:16:03.727Z,310
2018-04-29T12:17:12.563Z,385
2018-04-29T12:18:21.404Z,460
2018-04-29T12:19:30.243Z,520
2018-04-29T12:20:39.353Z,540
2018-04-29T12:21:48.292Z,580
2018-04-29T12:22:57.407Z,550
2018-04-29T12:24:06.523Z,455
2018-04-29T12:25:15.362Z,400
2018-04-29T12:26:24.200Z,365
2018-04-29T12:27:33.315Z,395
2018-04-29T12:28:42.152Z,520
2018-04-29T12:29:51.269Z,710
2018-04-29T12:31:00.111Z,725
2018-04-29T12:32:08.956Z,750
2018-04-29T12:33:18.074Z,735
2018-04-29T12:34:26.912Z,990
2018-04-29T12:35:36.031Z,980
2018-04-29T12:36:44.867Z,990
2018-04-29T12:37:53.707Z,1790
2018-04-29T12:39:03.125Z,2365
2018-04-29T12:40:11.963Z,2335
2018-04-29T12:41:20.797Z,3070
2018-04-29T12:42:29.636Z,3020
2018-04-29T12:43:38.479Z,2540
2018-04-29T12:44:47.318Z,1745
2018-04-29T12:45:56.156Z,1925
2018-04-29T12:47:04.997Z,1510
2018-04-29T12:48:14.112Z,1210
2018-04-29T12:49:22.955Z,1060
2018-04-29T12:50:31.902Z,1015
2018-04-29T12:51:40.747Z,955
2018-04-29T12:52:49.860Z,830
2018-04-29T12:53:58.701Z,770
2018-04-29T12:55:07.551Z,940
2018-04-29T12:56:16.387Z,945
2018-04-29T12:57:25.230Z,1240
2018-04-29T12:58:34.071Z,2275
2018-04-29T12:59:42.914Z,1120
2018-04-29T13:00:52.031Z,1170
2018-04-29T13:02:01.024Z,2045
2018-04-29T13:03:10.140Z,1335
2018-04-29T13:04:18.981Z,1630
2018-04-29T13:05:28.103Z,2270
2018-04-29T13:06:36.948Z,3695
2018-04-29T13:07:46.116Z,2060
2018-04-29T13:08:54.960Z,3240
2018-04-29T13:10:03.805Z,3295
2018-04-29T13:11:12.649Z,3460
2018-04-29T13:12:21.495Z,2240
2018-04-29T13:13:30.542Z,1285
2018-04-29T13:14:39.670Z,1120
2018-04-29T13:15:48.513Z,1355
2018-04-29T13:16:57.367Z,1300
2018-04-29T13:18:06.480Z,2135
2018-04-29T13:19:15.724Z,1655
2018-04-29T13:20:24.568Z,1870
2018-04-29T13:21:33.417Z,1485
2018-04-29T13:22:42.265Z,805
2018-04-29T13:23:51.112Z,600
2018-04-29T13:25:00.282Z,655
2018-04-29T13:26:09.128Z,595
2018-04-29T13:27:17.973Z,825
2018-04-29T13:28:26.819Z,775
2018-04-29T13:29:35.980Z,675
2018-04-29T13:30:45.430Z,615
2018-04-29T13:31:54.281Z,595
2018-04-29T13:33:03.120Z,605
2018-04-29T13:34:11.965Z,610
2018-04-29T13:35:20.809Z,1495
2018-04-29T13:36:29.752Z,1120
2018-04-29T13:37:38.597Z,1460
2018-04-29T13:38:47.440Z,1225
2018-04-29T13:39:56.606Z,1430
2018-04-29T13:41:05.449Z,2230
2018-04-29T13:42:15.292Z,2650
2018-04-29T13:43:24.599Z,985
2018-04-29T13:44:33.444Z,3385
2018-04-29T13:45:42.289Z,3245
2018-04-29T13:46:51.412Z,2955
2018-04-29T13:48:00.642Z,2480
2018-04-29T13:49:09.764Z,1385
2018-04-29T13:50:18.609Z,1760
2018-04-29T13:51:27.455Z,1690
2018-04-29T13:52:36.301Z,1450
2018-04-29T13:53:45.346Z,1795
2018-04-29T13:54:54.196Z,1145
2018-04-29T13:56:03.043Z,780
2018-04-29T13:57:11.893Z,650
2018-04-29T13:58:20.741Z,520
2018-04-29T13:59:29.737Z,625
2018-04-29T14:00:38.583Z,820
2018-04-29T14:01:47.983Z,1150
2018-04-29T14:02:56.831Z,1345
2018-04-29T14:04:05.948Z,1810
2018-04-29T14:05:15.168Z,920
2018-04-29T14:06:24.015Z,1445
2018-04-29T14:07:32.859Z,905
2018-04-29T14:08:42.269Z,800
2018-04-29T14:09:51.116Z,740
2018-04-29T14:11:00.260Z,690
2018-04-29T14:12:09.381Z,650
2018-04-29T14:13:18.507Z,635
2018-04-29T14:14:27.352Z,660
2018-04-29T14:15:36.196Z,895
2018-04-29T14:16:45.240Z,1345
2018-04-29T14:17:54.088Z,3375
2018-04-29T14:19:03.212Z,3470
2018-04-29T14:20:12.338Z,3460
2018-04-29T14:21:21.181Z,2765
2018-04-29T14:22:30.026Z,1650
2018-04-29T14:23:38.872Z,1225
2018-04-29T14:24:47.721Z,1725
2018-04-29T14:25:56.570Z,1465
2018-04-29T14:27:05.693Z,1135
2018-04-29T14:28:14.690Z,3375
2018-04-29T14:29:23.534Z,3525
2018-04-29T14:30:32.384Z,3405
2018-04-29T14:31:41.232Z,3270
2018-04-29T14:32:50.081Z,3380
2018-04-29T14:33:59.031Z,3460
2018-04-29T14:35:07.882Z,3400
2018-04-29T14:36:16.732Z,3400
2018-04-29T14:37:25.586Z,3310
2018-04-29T14:38:34.428Z,3265
2018-04-29T14:39:43.660Z,3390
2018-04-29T14:40:52.512Z,3495
2018-04-29T14:42:01.642Z,3335
2018-04-29T14:43:10.498Z,3605
2018-04-29T14:44:19.351Z,3610
2018-04-29T14:45:28.581Z,2110
2018-04-29T14:46:37.432Z,1180
2018-04-29T14:47:46.283Z,985
2018-04-29T14:48:55.136Z,865
2018-04-29T14:50:04.264Z,685
2018-04-29T14:51:13.263Z,585
2018-04-29T14:52:22.115Z,530
2018-04-29T14:53:30.969Z,475
2018-04-29T14:54:39.820Z,465
2018-04-29T14:55:48.670Z,450
2018-04-29T14:56:57.619Z,525
2018-04-29T14:58:06.468Z,580
2018-04-29T14:59:15.311Z,1620
2018-04-29T15:00:24.159Z,535
2018-04-29T15:01:33.351Z,560
2018-04-29T15:02:42.775Z,1285
2018-04-29T15:03:51.896Z,2665
2018-04-29T15:05:01.021Z,2905
2018-04-29T15:06:09.870Z,3115
2018-04-29T15:07:18.725Z,3090
2018-04-29T15:08:27.824Z,985
2018-04-29T15:09:36.678Z,1495
2018-04-29T15:10:45.521Z,1300
2018-04-29T15:11:54.369Z,2400
2018-04-29T15:13:03.768Z,1565
2018-04-29T15:14:12.762Z,2660
2018-04-29T15:15:21.887Z,2965
2018-04-29T15:16:30.738Z,1990
2018-04-29T15:17:39.583Z,1755
2018-04-29T15:18:48.430Z,850
2018-04-29T15:19:57.703Z,760
2018-04-29T15:21:06.551Z,920
2018-04-29T15:22:15.397Z,1990
2018-04-29T15:23:24.246Z,650
2018-04-29T15:24:33.093Z,980
2018-04-29T15:25:42.027Z,510
2018-04-29T15:26:51.068Z,430
2018-04-29T15:28:00.186Z,355
2018-04-29T15:29:09.308Z,320
2018-04-29T15:30:18.155Z,370
2018-04-29T15:31:26.998Z,435
2018-04-29T15:32:35.893Z,440
2018-04-29T15:33:44.738Z,395
2018-04-29T15:34:53.582Z,375
2018-04-29T15:36:02.428Z,365
2018-04-29T15:37:11.821Z,355
2018-04-29T15:38:20.671Z,345
2018-04-29T15:39:29.788Z,360
2018-04-29T15:40:38.964Z,395
2018-04-29T15:41:47.785Z,435
2018-04-29T15:42:56.726Z,450
2018-04-29T15:44:05.570Z,460
2018-04-29T15:45:14.413Z,470
2018-04-29T15:46:23.258Z,480
2018-04-29T15:47:32.105Z,510
2018-04-29T15:48:40.945Z,495
2018-04-29T15:49:49.789Z,495
2018-04-29T15:50:58.634Z,480
2018-04-29T15:52:07.479Z,720
2018-04-29T15:53:16.323Z,635
2018-04-29T15:54:25.473Z,680
2018-04-29T15:55:34.309Z,650
2018-04-29T15:56:43.153Z,610
2018-04-29T15:57:51.997Z,1205
2018-04-29T15:59:00.841Z,670
2018-04-29T16:00:09.932Z,925
2018-04-29T16:01:18.775Z,690
2018-04-29T16:02:27.899Z,560
2018-04-29T16:03:36.823Z,465
2018-04-29T16:04:45.582Z,405
2018-04-29T16:05:54.805Z,500